sensor_id;sensor_type;location;lat;lon;timestamp;P1;durP1;ratioP1;P2;durP2;ratioP2
63534;SDS011;55128;50.230;18.944;2022-12-07T00:51:18;15.70;;;10.10;;
63534;SDS011;55128;50.230;18.944;2022-12-07T00:56:24;15.27;;;10.15;;
63534;SDS011;55128;50.230;18.944;2022-12-07T01:01:48;18.58;;;11.43;;
63534;SDS011;55128;50.230;18.944;2022-12-07T01:07:13;18.63;;;12.13;;
63534;SDS011;55128;50.230;18.944;2022-12-07T01:12:21;20.08;;;13.25;;
63534;SDS011;55128;50.230;18.944;2022-12-07T01:17:47;20.92;;;14.38;;
63534;SDS011;55128;50.230;18.944;2022-12-07T01:22:55;22.55;;;15.70;;
63534;SDS011;55128;50.230;18.944;2022-12-07T01:27:58;23.85;;;15.50;;
63534;SDS011;55128;50.230;18.944;2022-12-07T01:33:43;21.08;;;14.65;;
63534;SDS011;55128;50.230;18.944;2022-12-07T01:39:20;25.15;;;14.35;;
63534;SDS011;55128;50.230;18.944;2022-12-07T01:50:48;24.20;;;15.98;;
63534;SDS011;55128;50.230;18.944;2022-12-07T01:56:19;24.17;;;15.77;;
63534;SDS011;55128;50.230;18.944;2022-12-07T02:02:07;24.65;;;15.48;;
63534;SDS011;55128;50.230;18.944;2022-12-07T02:07:34;22.58;;;16.08;;
63534;SDS011;55128;50.230;18.944;2022-12-07T02:13:36;25.52;;;17.20;;
63534;SDS011;55128;50.230;18.944;2022-12-07T02:20:06;26.45;;;17.23;;
63534;SDS011;55128;50.230;18.944;2022-12-07T02:38:53;27.95;;;18.67;;
63534;SDS011;55128;50.230;18.944;2022-12-07T02:45:07;32.35;;;19.85;;
63534;SDS011;55128;50.230;18.944;2022-12-07T03:03:17;30.90;;;21.20;;
63534;SDS011;55128;50.230;18.944;2022-12-07T03:27:50;28.08;;;18.35;;
63534;SDS011;55128;50.230;18.944;2022-12-07T03:33:42;24.67;;;16.33;;
63534;SDS011;55128;50.230;18.944;2022-12-07T03:39:13;24.20;;;15.38;;
63534;SDS011;55128;50.230;18.944;2022-12-07T03:44:32;22.02;;;14.98;;
63534;SDS011;55128;50.230;18.944;2022-12-07T03:55:42;23.92;;;15.20;;
63534;SDS011;55128;50.230;18.944;2022-12-07T04:00:51;25.50;;;14.98;;
63534;SDS011;55128;50.230;18.944;2022-12-07T04:05:55;25.90;;;15.43;;
63534;SDS011;55128;50.230;18.944;2022-12-07T04:11:04;24.50;;;15.75;;
63534;SDS011;55128;50.230;18.944;2022-12-07T04:16:05;24.55;;;15.25;;
63534;SDS011;55128;50.230;18.944;2022-12-07T04:21:05;24.80;;;15.27;;
63534;SDS011;55128;50.230;18.944;2022-12-07T04:26:06;24.80;;;16.05;;
63534;SDS011;55128;50.230;18.944;2022-12-07T04:31:08;25.58;;;16.95;;
63534;SDS011;55128;50.230;18.944;2022-12-07T05:09:15;25.60;;;15.75;;
63534;SDS011;55128;50.230;18.944;2022-12-07T05:26:25;26.55;;;16.17;;
63534;SDS011;55128;50.230;18.944;2022-12-07T05:31:27;24.35;;;14.85;;
63534;SDS011;55128;50.230;18.944;2022-12-07T05:36:36;24.65;;;15.00;;
63534;SDS011;55128;50.230;18.944;2022-12-07T05:42:03;24.42;;;15.13;;
63534;SDS011;55128;50.230;18.944;2022-12-07T05:47:15;27.50;;;15.07;;
63534;SDS011;55128;50.230;18.944;2022-12-07T05:52:23;28.33;;;16.80;;
63534;SDS011;55128;50.230;18.944;2022-12-07T05:57:25;33.78;;;18.95;;
63534;SDS011;55128;50.230;18.944;2022-12-07T06:19:26;24.10;;;15.00;;
63534;SDS011;55128;50.230;18.944;2022-12-07T06:24:28;23.00;;;14.10;;
63534;SDS011;55128;50.230;18.944;2022-12-07T06:29:32;21.38;;;14.10;;
63534;SDS011;55128;50.230;18.944;2022-12-07T06:34:33;20.98;;;12.80;;
63534;SDS011;55128;50.230;18.944;2022-12-07T06:39:33;20.60;;;12.32;;
63534;SDS011;55128;50.230;18.944;2022-12-07T06:44:33;20.88;;;13.55;;
63534;SDS011;55128;50.230;18.944;2022-12-07T06:49:34;16.33;;;11.60;;
63534;SDS011;55128;50.230;18.944;2022-12-07T06:54:34;17.50;;;12.27;;
63534;SDS011;55128;50.230;18.944;2022-12-07T06:59:35;23.75;;;14.48;;
63534;SDS011;55128;50.230;18.944;2022-12-07T07:04:35;16.58;;;11.35;;
63534;SDS011;55128;50.230;18.944;2022-12-07T07:09:35;16.70;;;10.90;;
63534;SDS011;55128;50.230;18.944;2022-12-07T07:14:37;17.48;;;9.45;;
63534;SDS011;55128;50.230;18.944;2022-12-07T07:19:38;19.70;;;12.93;;
63534;SDS011;55128;50.230;18.944;2022-12-07T07:24:38;15.20;;;10.40;;
63534;SDS011;55128;50.230;18.944;2022-12-07T07:29:39;15.10;;;10.32;;
63534;SDS011;55128;50.230;18.944;2022-12-07T07:34:39;15.48;;;10.27;;
63534;SDS011;55128;50.230;18.944;2022-12-07T07:39:40;17.80;;;11.38;;
63534;SDS011;55128;50.230;18.944;2022-12-07T07:44:40;17.27;;;10.83;;
63534;SDS011;55128;50.230;18.944;2022-12-07T07:49:40;18.08;;;11.65;;
63534;SDS011;55128;50.230;18.944;2022-12-07T07:54:41;16.58;;;11.00;;
63534;SDS011;55128;50.230;18.944;2022-12-07T07:59:41;19.13;;;11.27;;
63534;SDS011;55128;50.230;18.944;2022-12-07T08:04:41;16.10;;;10.60;;
63534;SDS011;55128;50.230;18.944;2022-12-07T08:09:42;16.38;;;10.55;;
63534;SDS011;55128;50.230;18.944;2022-12-07T08:14:42;19.38;;;10.40;;
63534;SDS011;55128;50.230;18.944;2022-12-07T08:19:43;15.90;;;10.18;;
63534;SDS011;55128;50.230;18.944;2022-12-07T08:24:43;17.33;;;10.43;;
63534;SDS011;55128;50.230;18.944;2022-12-07T08:29:43;17.87;;;9.80;;
63534;SDS011;55128;50.230;18.944;2022-12-07T08:34:44;17.02;;;11.00;;
63534;SDS011;55128;50.230;18.944;2022-12-07T08:39:44;18.48;;;11.77;;
63534;SDS011;55128;50.230;18.944;2022-12-07T08:44:45;17.17;;;11.82;;
63534;SDS011;55128;50.230;18.944;2022-12-07T08:49:46;15.52;;;10.50;;
63534;SDS011;55128;50.230;18.944;2022-12-07T08:54:49;16.77;;;10.45;;
63534;SDS011;55128;50.230;18.944;2022-12-07T08:59:50;16.63;;;10.55;;
63534;SDS011;55128;50.230;18.944;2022-12-07T09:04:50;19.35;;;12.65;;
63534;SDS011;55128;50.230;18.944;2022-12-07T09:09:50;18.75;;;11.93;;
63534;SDS011;55128;50.230;18.944;2022-12-07T09:14:51;16.35;;;11.63;;
63534;SDS011;55128;50.230;18.944;2022-12-07T09:19:51;17.60;;;12.45;;
63534;SDS011;55128;50.230;18.944;2022-12-07T09:24:52;20.55;;;13.63;;
63534;SDS011;55128;50.230;18.944;2022-12-07T09:29:55;19.63;;;14.20;;
63534;SDS011;55128;50.230;18.944;2022-12-07T09:34:56;22.05;;;13.30;;
63534;SDS011;55128;50.230;18.944;2022-12-07T09:39:56;20.83;;;12.88;;
63534;SDS011;55128;50.230;18.944;2022-12-07T09:44:56;24.70;;;15.93;;
63534;SDS011;55128;50.230;18.944;2022-12-07T09:50:06;22.02;;;14.98;;
63534;SDS011;55128;50.230;18.944;2022-12-07T09:55:13;29.00;;;15.80;;
63534;SDS011;55128;50.230;18.944;2022-12-07T10:00:19;21.70;;;14.57;;
63534;SDS011;55128;50.230;18.944;2022-12-07T10:05:38;21.52;;;14.88;;
63534;SDS011;55128;50.230;18.944;2022-12-07T10:10:42;16.42;;;12.50;;
63534;SDS011;55128;50.230;18.944;2022-12-07T10:15:48;17.25;;;11.93;;
63534;SDS011;55128;50.230;18.944;2022-12-07T10:21:26;12.80;;;8.65;;
63534;SDS011;55128;50.230;18.944;2022-12-07T10:31:49;11.20;;;8.07;;
63534;SDS011;55128;50.230;18.944;2022-12-07T10:42:19;15.52;;;9.63;;
63534;SDS011;55128;50.230;18.944;2022-12-07T10:47:24;14.32;;;7.88;;
63534;SDS011;55128;50.230;18.944;2022-12-07T10:57:58;11.25;;;7.60;;
63534;SDS011;55128;50.230;18.944;2022-12-07T11:24:06;13.27;;;9.43;;
63534;SDS011;55128;50.230;18.944;2022-12-07T11:34:39;10.68;;;8.10;;
63534;SDS011;55128;50.230;18.944;2022-12-07T11:39:49;13.43;;;8.50;;
63534;SDS011;55128;50.230;18.944;2022-12-07T11:49:58;10.25;;;7.88;;
63534;SDS011;55128;50.230;18.944;2022-12-07T11:55:13;10.23;;;7.40;;
63534;SDS011;55128;50.230;18.944;2022-12-07T12:00:24;8.77;;;7.45;;
63534;SDS011;55128;50.230;18.944;2022-12-07T12:05:24;11.57;;;8.00;;
63534;SDS011;55128;50.230;18.944;2022-12-07T12:10:38;10.32;;;7.55;;
63534;SDS011;55128;50.230;18.944;2022-12-07T12:20:55;13.13;;;8.77;;
63534;SDS011;55128;50.230;18.944;2022-12-07T12:26:02;11.85;;;7.75;;
63534;SDS011;55128;50.230;18.944;2022-12-07T12:31:06;10.67;;;7.60;;
63534;SDS011;55128;50.230;18.944;2022-12-07T12:46:55;10.07;;;7.38;;
63534;SDS011;55128;50.230;18.944;2022-12-07T12:57:29;8.13;;;6.55;;
63534;SDS011;55128;50.230;18.944;2022-12-07T13:02:47;9.93;;;6.20;;
63534;SDS011;55128;50.230;18.944;2022-12-07T13:07:52;10.70;;;6.82;;
63534;SDS011;55128;50.230;18.944;2022-12-07T13:13:01;10.68;;;6.95;;
63534;SDS011;55128;50.230;18.944;2022-12-07T13:18:03;9.25;;;6.28;;
63534;SDS011;55128;50.230;18.944;2022-12-07T13:23:27;8.77;;;5.82;;
63534;SDS011;55128;50.230;18.944;2022-12-07T13:28:35;8.85;;;6.25;;
63534;SDS011;55128;50.230;18.944;2022-12-07T13:33:38;10.57;;;6.20;;
63534;SDS011;55128;50.230;18.944;2022-12-07T13:38:39;9.57;;;6.18;;
63534;SDS011;55128;50.230;18.944;2022-12-07T13:43:52;9.73;;;6.88;;
63534;SDS011;55128;50.230;18.944;2022-12-07T13:48:53;8.98;;;6.28;;
63534;SDS011;55128;50.230;18.944;2022-12-07T13:53:58;9.13;;;6.35;;
63534;SDS011;55128;50.230;18.944;2022-12-07T13:59:01;9.93;;;6.80;;
63534;SDS011;55128;50.230;18.944;2022-12-07T14:04:18;9.32;;;6.50;;
63534;SDS011;55128;50.230;18.944;2022-12-07T14:09:30;11.35;;;6.65;;
63534;SDS011;55128;50.230;18.944;2022-12-07T14:14:30;9.70;;;7.40;;
63534;SDS011;55128;50.230;18.944;2022-12-07T14:19:45;10.35;;;6.40;;
63534;SDS011;55128;50.230;18.944;2022-12-07T14:24:57;12.02;;;6.97;;
63534;SDS011;55128;50.230;18.944;2022-12-07T14:30:14;10.98;;;7.75;;
63534;SDS011;55128;50.230;18.944;2022-12-07T14:35:17;13.02;;;8.05;;
63534;SDS011;55128;50.230;18.944;2022-12-07T14:40:20;11.73;;;7.13;;
63534;SDS011;55128;50.230;18.944;2022-12-07T14:45:24;19.00;;;9.43;;
63534;SDS011;55128;50.230;18.944;2022-12-07T14:50:25;15.38;;;9.02;;
63534;SDS011;55128;50.230;18.944;2022-12-07T14:55:26;18.98;;;9.73;;
63534;SDS011;55128;50.230;18.944;2022-12-07T15:00:30;16.85;;;9.80;;
63534;SDS011;55128;50.230;18.944;2022-12-07T15:05:31;15.00;;;9.07;;
63534;SDS011;55128;50.230;18.944;2022-12-07T15:10:33;14.52;;;8.98;;
63534;SDS011;55128;50.230;18.944;2022-12-07T15:15:33;19.42;;;9.95;;
63534;SDS011;55128;50.230;18.944;2022-12-07T15:20:34;22.20;;;11.75;;
63534;SDS011;55128;50.230;18.944;2022-12-07T15:25:34;16.52;;;9.30;;
63534;SDS011;55128;50.230;18.944;2022-12-07T15:30:36;11.47;;;7.23;;
63534;SDS011;55128;50.230;18.944;2022-12-07T15:35:43;10.93;;;6.15;;
63534;SDS011;55128;50.230;18.944;2022-12-07T15:40:47;11.02;;;6.40;;
63534;SDS011;55128;50.230;18.944;2022-12-07T15:45:49;9.70;;;6.43;;
63534;SDS011;55128;50.230;18.944;2022-12-07T15:50:49;13.38;;;7.55;;
63534;SDS011;55128;50.230;18.944;2022-12-07T15:55:50;15.80;;;8.80;;
63534;SDS011;55128;50.230;18.944;2022-12-07T16:00:50;18.05;;;10.77;;
63534;SDS011;55128;50.230;18.944;2022-12-07T16:05:51;17.15;;;10.85;;
63534;SDS011;55128;50.230;18.944;2022-12-07T16:10:53;17.50;;;10.93;;
63534;SDS011;55128;50.230;18.944;2022-12-07T16:15:53;16.27;;;10.38;;
63534;SDS011;55128;50.230;18.944;2022-12-07T16:20:55;17.27;;;10.70;;
63534;SDS011;55128;50.230;18.944;2022-12-07T16:26:03;15.90;;;9.55;;
63534;SDS011;55128;50.230;18.944;2022-12-07T16:31:32;14.40;;;8.88;;
63534;SDS011;55128;50.230;18.944;2022-12-07T16:36:33;18.58;;;9.82;;
63534;SDS011;55128;50.230;18.944;2022-12-07T16:41:34;18.90;;;10.95;;
63534;SDS011;55128;50.230;18.944;2022-12-07T16:46:34;21.83;;;11.63;;
63534;SDS011;55128;50.230;18.944;2022-12-07T16:51:36;26.52;;;13.45;;
63534;SDS011;55128;50.230;18.944;2022-12-07T16:56:37;23.48;;;11.60;;
63534;SDS011;55128;50.230;18.944;2022-12-07T17:01:37;21.80;;;12.02;;
63534;SDS011;55128;50.230;18.944;2022-12-07T17:06:37;39.37;;;13.60;;
63534;SDS011;55128;50.230;18.944;2022-12-07T17:11:38;35.58;;;13.50;;
63534;SDS011;55128;50.230;18.944;2022-12-07T17:16:38;23.67;;;11.37;;
63534;SDS011;55128;50.230;18.944;2022-12-07T17:21:39;17.67;;;10.27;;
63534;SDS011;55128;50.230;18.944;2022-12-07T17:26:40;16.25;;;9.13;;
63534;SDS011;55128;50.230;18.944;2022-12-07T17:31:41;16.05;;;9.35;;
63534;SDS011;55128;50.230;18.944;2022-12-07T17:36:41;15.30;;;9.52;;
63534;SDS011;55128;50.230;18.944;2022-12-07T17:41:42;15.93;;;9.27;;
63534;SDS011;55128;50.230;18.944;2022-12-07T17:47:01;25.65;;;12.10;;
63534;SDS011;55128;50.230;18.944;2022-12-07T17:52:02;18.00;;;9.80;;
63534;SDS011;55128;50.230;18.944;2022-12-07T17:57:22;19.20;;;11.98;;
63534;SDS011;55128;50.230;18.944;2022-12-07T18:02:22;21.83;;;10.73;;
63534;SDS011;55128;50.230;18.944;2022-12-07T18:07:22;19.23;;;11.55;;
63534;SDS011;55128;50.230;18.944;2022-12-07T18:12:23;17.88;;;10.48;;
63534;SDS011;55128;50.230;18.944;2022-12-07T18:17:23;16.30;;;9.30;;
63534;SDS011;55128;50.230;18.944;2022-12-07T18:22:23;16.08;;;9.65;;
63534;SDS011;55128;50.230;18.944;2022-12-07T18:27:24;18.75;;;8.82;;
63534;SDS011;55128;50.230;18.944;2022-12-07T18:32:24;13.93;;;8.35;;
63534;SDS011;55128;50.230;18.944;2022-12-07T18:37:25;14.43;;;8.63;;
63534;SDS011;55128;50.230;18.944;2022-12-07T18:42:26;17.85;;;10.00;;
63534;SDS011;55128;50.230;18.944;2022-12-07T18:47:26;17.17;;;8.73;;
63534;SDS011;55128;50.230;18.944;2022-12-07T18:52:27;19.25;;;10.85;;
63534;SDS011;55128;50.230;18.944;2022-12-07T18:57:28;18.42;;;9.38;;
63534;SDS011;55128;50.230;18.944;2022-12-07T19:02:31;18.52;;;9.45;;
63534;SDS011;55128;50.230;18.944;2022-12-07T19:07:31;16.80;;;10.05;;
63534;SDS011;55128;50.230;18.944;2022-12-07T19:12:31;20.65;;;11.82;;
63534;SDS011;55128;50.230;18.944;2022-12-07T19:17:32;24.17;;;12.53;;
63534;SDS011;55128;50.230;18.944;2022-12-07T19:22:32;20.40;;;11.85;;
63534;SDS011;55128;50.230;18.944;2022-12-07T19:27:33;21.48;;;11.73;;
63534;SDS011;55128;50.230;18.944;2022-12-07T19:32:33;19.05;;;11.20;;
63534;SDS011;55128;50.230;18.944;2022-12-07T19:37:34;20.35;;;10.50;;
63534;SDS011;55128;50.230;18.944;2022-12-07T19:42:34;16.83;;;9.90;;
63534;SDS011;55128;50.230;18.944;2022-12-07T19:47:34;21.30;;;11.43;;
63534;SDS011;55128;50.230;18.944;2022-12-07T19:52:35;18.08;;;10.63;;
63534;SDS011;55128;50.230;18.944;2022-12-07T19:57:35;17.10;;;10.48;;
63534;SDS011;55128;50.230;18.944;2022-12-07T20:02:36;20.67;;;11.57;;
63534;SDS011;55128;50.230;18.944;2022-12-07T20:07:36;18.45;;;11.00;;
63534;SDS011;55128;50.230;18.944;2022-12-07T20:12:38;20.38;;;11.75;;
63534;SDS011;55128;50.230;18.944;2022-12-07T20:17:56;21.40;;;12.07;;
63534;SDS011;55128;50.230;18.944;2022-12-07T20:22:57;23.38;;;12.27;;
63534;SDS011;55128;50.230;18.944;2022-12-07T20:27:57;22.15;;;12.77;;
63534;SDS011;55128;50.230;18.944;2022-12-07T20:32:57;22.52;;;13.35;;
63534;SDS011;55128;50.230;18.944;2022-12-07T20:37:58;22.00;;;12.90;;
63534;SDS011;55128;50.230;18.944;2022-12-07T20:42:58;24.07;;;15.37;;
63534;SDS011;55128;50.230;18.944;2022-12-07T20:47:58;27.25;;;15.05;;
63534;SDS011;55128;50.230;18.944;2022-12-07T20:52:59;26.77;;;15.55;;
63534;SDS011;55128;50.230;18.944;2022-12-07T20:57:59;26.13;;;14.73;;
63534;SDS011;55128;50.230;18.944;2022-12-07T21:03:00;24.15;;;14.70;;
63534;SDS011;55128;50.230;18.944;2022-12-07T21:08:01;21.95;;;13.82;;
63534;SDS011;55128;50.230;18.944;2022-12-07T21:13:01;23.57;;;12.57;;
63534;SDS011;55128;50.230;18.944;2022-12-07T21:18:01;18.87;;;11.77;;
63534;SDS011;55128;50.230;18.944;2022-12-07T21:23:02;20.40;;;12.27;;
63534;SDS011;55128;50.230;18.944;2022-12-07T21:28:02;21.27;;;12.90;;
63534;SDS011;55128;50.230;18.944;2022-12-07T21:33:03;36.92;;;17.85;;
63534;SDS011;55128;50.230;18.944;2022-12-07T21:38:03;29.42;;;15.50;;
63534;SDS011;55128;50.230;18.944;2022-12-07T21:43:03;21.20;;;13.00;;
63534;SDS011;55128;50.230;18.944;2022-12-07T21:48:04;16.83;;;10.97;;
63534;SDS011;55128;50.230;18.944;2022-12-07T21:53:04;19.38;;;10.88;;
63534;SDS011;55128;50.230;18.944;2022-12-07T21:58:05;16.77;;;10.83;;
63534;SDS011;55128;50.230;18.944;2022-12-07T22:03:05;17.70;;;9.98;;
63534;SDS011;55128;50.230;18.944;2022-12-07T22:08:05;18.47;;;9.93;;
63534;SDS011;55128;50.230;18.944;2022-12-07T22:13:07;15.68;;;9.35;;
63534;SDS011;55128;50.230;18.944;2022-12-07T22:18:08;16.92;;;10.05;;
63534;SDS011;55128;50.230;18.944;2022-12-07T22:23:09;14.50;;;8.82;;
63534;SDS011;55128;50.230;18.944;2022-12-07T22:28:09;14.57;;;9.07;;
63534;SDS011;55128;50.230;18.944;2022-12-07T22:33:09;13.97;;;7.97;;
63534;SDS011;55128;50.230;18.944;2022-12-07T22:38:09;14.25;;;9.18;;
63534;SDS011;55128;50.230;18.944;2022-12-07T22:43:11;13.35;;;8.68;;
63534;SDS011;55128;50.230;18.944;2022-12-07T22:48:11;16.10;;;8.38;;
63534;SDS011;55128;50.230;18.944;2022-12-07T22:53:11;14.68;;;8.77;;
63534;SDS011;55128;50.230;18.944;2022-12-07T22:58:12;14.05;;;8.23;;
63534;SDS011;55128;50.230;18.944;2022-12-07T23:03:13;14.48;;;8.77;;
63534;SDS011;55128;50.230;18.944;2022-12-07T23:08:14;16.40;;;8.50;;
63534;SDS011;55128;50.230;18.944;2022-12-07T23:13:16;13.10;;;7.80;;
63534;SDS011;55128;50.230;18.944;2022-12-07T23:18:32;15.68;;;9.05;;
63534;SDS011;55128;50.230;18.944;2022-12-07T23:23:33;15.02;;;8.75;;
63534;SDS011;55128;50.230;18.944;2022-12-07T23:28:34;15.63;;;9.02;;
63534;SDS011;55128;50.230;18.944;2022-12-07T23:33:35;15.02;;;8.50;;
63534;SDS011;55128;50.230;18.944;2022-12-07T23:38:35;16.07;;;9.73;;
63534;SDS011;55128;50.230;18.944;2022-12-07T23:43:36;15.10;;;8.95;;
63534;SDS011;55128;50.230;18.944;2022-12-07T23:48:38;13.70;;;8.32;;
63534;SDS011;55128;50.230;18.944;2022-12-07T23:53:40;14.40;;;9.32;;
63534;SDS011;55128;50.230;18.944;2022-12-07T23:58:42;14.88;;;9.85;;
